Time;durP1;ratioP1;P1;durP2;ratioP2;P2;SDS_P1;SDS_P2;PMS_P1;PMS_P2;Temp;Humidity;BMP_temperature;BMP_pressure;BME280_temperature;BME280_humidity;BME280_pressure;Samples;Min_cycle;Max_cycle;Signal;HPM_P1;HPM_P2
2021/09/15 00:01:05;;;;;;;67.20;9.93;;;;;;;11.20;78.23;101033.13;1708939;80;25766;-79
2021/09/15 00:03:37;;;;;;;41.28;10.48;;;;;;;11.15;78.36;101023.44;1686609;82;25945;-79
2021/09/15 00:06:05;;;;;;;27.62;9.33;;;;;;;11.09;78.41;101019.64;1702583;82;27566;-79
2021/09/15 00:08:32;;;;;;;44.38;9.48;;;;;;;11.04;78.49;101022.51;1723273;82;26109;-79
2021/09/15 00:11:00;;;;;;;41.02;9.18;;;;;;;11.01;78.65;101015.69;1661782;83;25899;-79
2021/09/15 00:13:32;;;;;;;22.00;9.70;;;;;;;10.99;78.63;101013.66;1709585;82;25887;-79
2021/09/15 00:15:59;;;;;;;16.32;9.45;;;;;;;10.99;78.65;101008.83;1717362;81;25867;-79
2021/09/15 00:18:26;;;;;;;16.75;8.15;;;;;;;10.97;78.70;101008.17;1734387;82;27458;-79
2021/09/15 00:20:53;;;;;;;13.58;9.55;;;;;;;10.96;78.72;101010.52;1660823;82;25831;-79
2021/09/15 00:23:20;;;;;;;74.67;9.88;;;;;;;10.94;78.63;101015.23;1707366;82;25780;-79
2021/09/15 00:25:47;;;;;;;106.40;11.40;;;;;;;10.91;78.77;101009.71;1717880;82;26235;-78
2021/09/15 00:28:14;;;;;;;33.50;10.90;;;;;;;10.86;78.87;101009.43;1730680;82;26539;-79
2021/09/15 00:30:41;;;;;;;79.65;12.47;;;;;;;10.80;79.14;101010.96;1636255;82;27354;-79
2021/09/15 00:33:08;;;;;;;83.30;11.90;;;;;;;10.79;79.43;101018.69;1686367;82;25819;-79
2021/09/15 00:35:35;;;;;;;61.25;12.20;;;;;;;10.76;79.52;101016.34;1709486;82;25825;-79
2021/09/15 00:38:02;;;;;;;70.90;10.93;;;;;;;10.73;79.43;101017.22;1733578;82;26450;-79
2021/09/15 00:40:29;;;;;;;57.58;11.40;;;;;;;10.69;79.43;101014.57;1711173;82;25605;-79
2021/09/15 00:42:56;;;;;;;17.32;10.28;;;;;;;10.66;79.43;101020.27;1687366;82;27564;-79
2021/09/15 00:45:25;;;;;;;15.20;9.75;;;;;;;10.64;79.48;101015.10;1700709;82;25850;-79
2021/09/15 00:47:52;;;;;;;15.13;10.45;;;;;;;10.64;79.47;101020.95;1733995;81;25774;-79
2021/09/15 00:50:20;;;;;;;15.45;10.70;;;;;;;10.61;79.50;101022.14;1660663;81;25863;-79
2021/09/15 00:52:47;;;;;;;16.70;11.78;;;;;;;10.62;79.60;101018.96;1700113;82;25844;-79
2021/09/15 00:55:15;;;;;;;19.50;11.68;;;;;;;10.63;79.59;101022.80;1716029;82;27595;-79
2021/09/15 00:57:42;;;;;;;44.58;12.73;;;;;;;10.61;79.46;101016.78;1733862;81;26509;-79
2021/09/15 01:00:10;;;;;;;31.60;15.38;;;;;;;10.59;79.59;101021.48;1720987;81;25839;-79
2021/09/15 01:02:37;;;;;;;33.98;14.03;;;;;;;10.58;79.85;101021.17;1700457;80;26394;-79
2021/09/15 01:05:07;;;;;;;32.23;15.20;;;;;;;10.57;80.05;101024.84;1702509;82;25811;-79
2021/09/15 01:07:35;;;;;;;43.13;16.10;;;;;;;10.57;80.07;101029.36;1748469;81;28287;-79
2021/09/15 01:10:05;;;;;;;77.80;14.50;;;;;;;10.57;80.31;101027.52;1701747;80;25880;-79
2021/09/15 01:12:34;;;;;;;55.58;13.50;;;;;;;10.59;80.05;101024.66;1707263;80;25850;-79
2021/09/15 01:15:12;;;;;;;40.28;12.63;;;;;;;10.59;79.95;101024.66;1765637;80;26992;-79
2021/09/15 01:17:41;;;;;;;49.30;12.98;;;;;;;10.56;79.99;101020.48;1744612;81;26752;-79
2021/09/15 01:20:28;;;;;;;87.82;13.40;;;;;;;10.54;80.07;101021.16;1715495;81;28285;-79
2021/09/15 01:23:03;;;;;;;46.00;14.30;;;;;;;10.50;80.07;101019.05;1709006;81;25957;-79
2021/09/15 01:25:35;;;;;;;61.02;13.95;;;;;;;10.47;80.32;101016.70;1723408;81;25755;-79
2021/09/15 01:28:13;;;;;;;63.38;13.38;;;;;;;10.46;80.61;101018.54;1698789;84;25973;-79
2021/09/15 01:30:42;;;;;;;19.62;12.43;;;;;;;10.47;80.63;101018.05;1702370;81;25887;-79
2021/09/15 01:33:14;;;;;;;30.68;12.30;;;;;;;10.45;80.60;101014.70;1706448;81;27495;-79
2021/09/15 01:35:44;;;;;;;48.60;12.43;;;;;;;10.45;80.61;101017.39;1756948;80;25874;-79
2021/09/15 01:38:12;;;;;;;30.43;13.18;;;;;;;10.46;80.63;101018.54;1754840;81;25984;-79
2021/09/15 01:40:39;;;;;;;51.15;12.20;;;;;;;10.47;80.86;101016.20;1724103;81;25744;-79
2021/09/15 01:43:07;;;;;;;39.33;12.75;;;;;;;10.47;80.86;101007.33;1754403;81;25916;-78
2021/09/15 01:45:34;;;;;;;28.10;11.50;;;;;;;10.46;80.74;101009.16;1700677;81;27545;-79
2021/09/15 01:48:04;;;;;;;24.40;11.22;;;;;;;10.43;80.63;101007.36;1695896;81;26193;-79
2021/09/15 01:50:33;;;;;;;22.40;11.65;;;;;;;10.40;80.51;101009.03;1725224;81;25924;-78
2021/09/15 01:53:00;;;;;;;30.65;12.55;;;;;;;10.35;80.48;101009.55;1752759;81;25866;-79
2021/09/15 01:55:30;;;;;;;31.27;12.07;;;;;;;10.32;80.58;101013.94;1696547;82;25851;-79
2021/09/15 01:58:15;;;;;;;26.15;12.20;;;;;;;10.32;80.75;101019.80;1726930;81;27453;-79
2021/09/15 02:01:01;;;;;;;19.30;12.00;;;;;;;10.31;81.03;101016.80;1726302;81;25917;-78
2021/09/15 02:03:36;;;;;;;21.93;11.50;;;;;;;10.29;81.14;101020.97;1715225;81;25406;-79
2021/09/15 02:06:05;;;;;;;24.67;11.93;;;;;;;10.30;81.36;101020.47;1692317;81;25688;-78
2021/09/15 02:08:34;;;;;;;21.20;12.15;;;;;;;10.30;81.81;101014.62;1730321;80;25784;-79
2021/09/15 02:11:14;;;;;;;;;;;;;;;10.33;81.97;101016.13;1722949;81;27788;-79
2021/09/15 02:13:42;;;;;;;43.70;12.28;;;;;;;10.34;82.47;101017.77;1720645;81;25881;-79
2021/09/15 02:16:09;;;;;;;34.75;12.80;;;;;;;10.33;82.80;101013.44;1721287;81;26488;-79
2021/09/15 02:18:36;;;;;;;32.48;12.28;;;;;;;10.37;82.88;101015.56;1695595;82;25830;-79
2021/09/15 02:21:17;;;;;;;50.40;13.20;;;;;;;10.41;83.05;101011.55;1709243;81;26494;-79
2021/09/15 02:23:52;;;;;;;31.05;12.37;;;;;;;10.44;83.16;101017.88;1749033;81;27527;-79
2021/09/15 02:26:38;;;;;;;22.50;13.45;;;;;;;10.47;83.35;101020.22;1751676;81;25798;-78
2021/09/15 02:29:06;;;;;;;22.62;13.65;;;;;;;10.49;83.47;101016.86;1695523;82;25811;-79
2021/09/15 02:31:41;;;;;;;17.12;13.18;;;;;;;10.52;83.61;101021.84;1640568;81;26664;-79
2021/09/15 02:34:10;;;;;;;19.40;13.70;;;;;;;10.55;83.57;101022.84;1728862;81;26000;-79
2021/09/15 02:36:39;;;;;;;18.10;13.88;;;;;;;10.60;83.78;101021.83;1751234;81;27553;-79
2021/09/15 02:39:10;;;;;;;24.07;14.73;;;;;;;10.65;84.19;101021.27;1718088;81;25356;-80
2021/09/15 02:41:37;;;;;;;18.50;13.93;;;;;;;10.69;84.25;101023.95;1701954;81;25359;-79
2021/09/15 02:44:09;;;;;;;19.35;14.68;;;;;;;10.72;84.36;101023.58;1752799;81;26047;-79
2021/09/15 02:46:54;;;;;;;20.85;14.85;;;;;;;10.74;84.49;101024.23;1726063;81;25796;-78
2021/09/15 02:49:27;;;;;;;21.65;14.95;;;;;;;10.77;84.63;101015.85;1698415;81;27534;-79
2021/09/15 02:51:55;;;;;;;24.25;14.68;;;;;;;10.79;84.64;101015.16;1718131;81;28084;-79
2021/09/15 02:54:24;;;;;;;22.77;15.50;;;;;;;10.81;84.62;101015.32;1752207;80;25850;-78
2021/09/15 02:57:09;;;;;;;20.72;14.83;;;;;;;10.84;84.66;101019.50;1757145;80;25840;-79
2021/09/15 02:59:38;;;;;;;22.67;16.17;;;;;;;10.84;84.68;101016.28;1700569;81;25820;-79
2021/09/15 03:02:07;;;;;;;21.33;14.90;;;;;;;10.88;84.97;101012.77;1684835;81;28249;-78
2021/09/15 03:04:45;;;;;;;22.07;15.15;;;;;;;10.86;85.14;101008.90;1720037;81;25744;-79
2021/09/15 03:07:23;;;;;;;20.43;14.83;;;;;;;10.88;85.16;101008.75;1747912;81;25777;-79
2021/09/15 03:09:50;;;;;;;20.08;15.13;;;;;;;10.88;85.36;101003.38;1705758;80;25843;-79
2021/09/15 03:12:17;;;;;;;26.50;16.60;;;;;;;10.88;85.42;100996.16;1695925;81;25886;-79
2021/09/15 03:14:44;;;;;;;20.27;14.55;;;;;;;10.92;85.57;100999.83;1759808;80;28318;-79
2021/09/15 03:17:12;;;;;;;23.07;15.48;;;;;;;10.93;85.59;100988.92;1751058;81;26331;-79
2021/09/15 03:19:39;;;;;;;21.42;15.65;;;;;;;10.95;85.56;100992.78;1700568;81;25882;-79
2021/09/15 03:22:07;;;;;;;25.23;15.70;;;;;;;10.99;85.72;100991.41;1705646;81;25857;-79
2021/09/15 03:24:34;;;;;;;20.50;15.38;;;;;;;11.03;85.72;100996.73;1778375;80;26492;-79
2021/09/15 03:27:05;;;;;;;22.30;15.28;;;;;;;11.05;85.77;100990.68;1775429;80;27588;-79
2021/09/15 03:29:33;;;;;;;17.92;14.63;;;;;;;11.05;85.82;100988.84;1705015;81;25996;-79
2021/09/15 03:32:01;;;;;;;22.55;15.93;;;;;;;11.07;85.93;100988.16;1720924;80;25988;-78
2021/09/15 03:34:28;;;;;;;20.50;15.08;;;;;;;11.07;85.87;100981.95;1758302;80;25949;-79
2021/09/15 03:36:55;;;;;;;25.27;16.05;;;;;;;11.06;85.80;100988.31;1759517;80;25885;-79
2021/09/15 03:39:23;;;;;;;21.50;15.75;;;;;;;11.07;85.76;100981.95;1727466;81;28228;-79
2021/09/15 03:41:50;;;;;;;22.30;15.90;;;;;;;11.06;85.73;100982.45;1702152;82;25916;-79
2021/09/15 03:44:17;;;;;;;20.57;15.05;;;;;;;11.08;85.73;100976.40;1751482;81;25969;-79
2021/09/15 03:46:45;;;;;;;20.37;15.03;;;;;;;11.09;85.68;100980.77;1750486;81;25930;-79
2021/09/15 03:49:12;;;;;;;20.10;15.40;;;;;;;11.07;85.34;100980.61;1723925;81;25981;-79
2021/09/15 03:51:39;;;;;;;20.45;14.50;;;;;;;11.06;85.25;100977.09;1709835;80;27544;-79
2021/09/15 03:54:07;;;;;;;17.75;13.35;;;;;;;11.04;85.09;100966.22;1768593;80;25744;-79
2021/09/15 03:56:34;;;;;;;20.30;15.00;;;;;;;11.02;84.93;100976.28;1725326;81;25965;-79
2021/09/15 03:59:02;;;;;;;20.48;16.12;;;;;;;11.02;84.96;100981.64;1721933;82;26468;-78
2021/09/15 04:01:29;;;;;;;30.95;22.73;;;;;;;11.02;85.00;100982.98;1729997;81;26058;-78
2021/09/15 04:03:56;;;;;;;25.20;19.12;;;;;;;11.02;85.13;100974.45;1718818;82;27470;-79
2021/09/15 04:06:24;;;;;;;24.77;19.40;;;;;;;11.04;85.14;100981.80;1709669;81;25790;-78
2021/09/15 04:08:51;;;;;;;22.98;17.70;;;;;;;11.03;85.17;100981.48;1711003;81;25856;-79
2021/09/15 04:11:18;;;;;;;24.67;17.90;;;;;;;11.03;85.18;100979.31;1688465;82;25860;-79
2021/09/15 04:13:47;;;;;;;57.15;34.33;;;;;;;11.06;85.34;100974.41;1732660;81;26506;-79
2021/09/15 04:16:15;;;;;;;58.90;35.30;;;;;;;11.10;85.39;100976.23;1740365;81;27480;-79
2021/09/15 04:18:44;;;;;;;45.28;29.40;;;;;;;11.10;85.32;100975.70;1690635;83;25623;-79
2021/09/15 04:21:11;;;;;;;35.48;21.25;;;;;;;11.12;85.32;100968.31;1662357;81;26616;-79
2021/09/15 04:31:51;;;;;;;33.73;21.75;;;;;;;11.13;85.41;100974.52;1692613;81;26099;-79
2021/09/15 04:34:18;;;;;;;37.35;22.82;;;;;;;11.13;85.37;100971.84;1713161;81;25796;-79
2021/09/15 04:36:50;;;;;;;33.48;22.27;;;;;;;11.15;85.32;100980.03;1735911;81;26009;-79
2021/09/15 04:39:17;;;;;;;28.83;21.50;;;;;;;11.15;85.26;100982.72;1689638;81;26029;-79
2021/09/15 04:41:44;;;;;;;29.42;20.32;;;;;;;11.17;85.14;100981.19;1681817;83;27467;-79
2021/09/15 04:44:11;;;;;;;26.93;20.02;;;;;;;11.17;85.20;100973.14;1735522;81;26224;-79
2021/09/15 04:46:39;;;;;;;23.65;18.32;;;;;;;11.16;85.14;100976.32;1739973;81;25823;-79
2021/09/15 04:49:09;;;;;;;24.98;17.40;;;;;;;11.17;85.08;100982.02;1697311;81;26577;-79
2021/09/15 04:51:38;;;;;;;25.70;18.87;;;;;;;11.17;85.18;100986.05;1712674;82;25881;-78
2021/09/15 04:54:05;;;;;;;25.37;18.57;;;;;;;11.16;85.19;100979.00;1745360;81;27142;-78
2021/09/15 04:56:32;;;;;;;28.00;18.95;;;;;;;11.17;85.36;100984.70;1763075;80;25670;-78
2021/09/15 04:58:59;;;;;;;30.08;18.77;;;;;;;11.21;85.64;100983.83;1708544;82;25800;-78
2021/09/15 05:01:26;;;;;;;26.73;18.05;;;;;;;11.24;85.83;100983.48;1683103;80;25760;-79
2021/09/15 05:03:54;;;;;;;22.02;16.90;;;;;;;11.27;85.96;100975.89;1764822;80;25708;-79
2021/09/15 05:06:22;;;;;;;24.20;16.80;;;;;;;11.29;86.13;100975.20;1742981;81;27461;-79
2021/09/15 05:08:49;;;;;;;22.07;16.40;;;;;;;11.32;86.22;100976.19;1668896;82;25873;-79
2021/09/15 05:11:16;;;;;;;21.68;16.97;;;;;;;11.36;86.31;100965.91;1696974;82;25822;-78
2021/09/15 05:13:44;;;;;;;25.15;18.10;;;;;;;11.39;86.39;100970.42;1742990;81;25805;-79
2021/09/15 05:16:11;;;;;;;24.18;18.15;;;;;;;11.42;86.62;100969.20;1714573;81;25921;-79
2021/09/15 05:18:38;;;;;;;27.40;17.77;;;;;;;11.45;86.69;100973.71;1689561;81;27669;-79
2021/09/15 05:21:06;;;;;;;27.75;18.37;;;;;;;11.50;86.88;100978.53;1732629;80;25854;-79
2021/09/15 05:23:34;;;;;;;27.32;18.73;;;;;;;11.54;86.88;100982.52;1727285;81;26409;-79
2021/09/15 05:26:03;;;;;;;28.90;19.73;;;;;;;11.60;87.01;100983.11;1757313;81;26533;-79
2021/09/15 05:28:31;;;;;;;24.92;18.80;;;;;;;11.66;87.64;100990.42;1748343;80;25744;-79
2021/09/15 05:30:58;;;;;;;24.63;17.12;;;;;;;11.72;87.91;100993.73;1695531;81;27379;-79
2021/09/15 05:33:26;;;;;;;25.82;17.77;;;;;;;11.80;88.63;100995.52;1750882;81;25965;-79
2021/09/15 05:35:53;;;;;;;24.05;17.42;;;;;;;11.85;88.80;100995.77;1752814;81;25820;-79
2021/09/15 05:38:22;;;;;;;30.52;18.05;;;;;;;11.86;88.83;100994.27;1702347;81;26489;-79
2021/09/15 05:40:54;;;;;;;26.73;18.73;;;;;;;11.92;89.39;100989.99;1719392;81;25910;-79
2021/09/15 05:43:21;;;;;;;23.32;18.65;;;;;;;11.96;89.53;100983.23;1721940;81;27581;-79
2021/09/15 05:45:48;;;;;;;28.32;20.05;;;;;;;12.02;89.88;100990.03;1754470;81;25318;-79
2021/09/15 05:48:15;;;;;;;21.00;17.40;;;;;;;12.09;90.17;100984.75;1719634;81;25933;-79
2021/09/15 05:50:42;;;;;;;19.37;15.75;;;;;;;12.16;90.44;100971.75;1690707;81;25881;-79
2021/09/15 05:53:10;;;;;;;22.48;15.80;;;;;;;12.22;90.46;100970.15;1762186;80;25792;-79
2021/09/15 05:55:38;;;;;;;21.27;15.18;;;;;;;12.23;90.31;100960.55;1756158;81;27460;-79
2021/09/15 05:58:05;;;;;;;20.82;15.95;;;;;;;12.25;90.33;100955.02;1704040;82;25724;-79
2021/09/15 06:00:32;;;;;;;23.50;17.98;;;;;;;12.27;90.45;100964.52;1738740;80;26638;-79
2021/09/15 06:03:01;;;;;;;26.95;18.98;;;;;;;12.33;90.54;100966.98;1690045;81;26594;-79
2021/09/15 06:05:36;;;;;;;28.83;21.25;;;;;;;12.41;90.85;100964.17;1722298;81;26658;-79
2021/09/15 06:08:04;;;;;;;31.20;22.40;;;;;;;12.52;91.29;100958.81;1708110;82;27459;-78
2021/09/15 06:10:31;;;;;;;33.33;24.15;;;;;;;12.61;91.47;100963.05;1739166;81;25802;-83
2021/09/15 06:12:58;;;;;;;37.73;25.00;;;;;;;12.72;92.03;100963.89;1703588;81;25803;-78
2021/09/15 06:15:25;;;;;;;44.67;28.05;;;;;;;12.84;92.59;100962.34;1734800;81;26309;-79
2021/09/15 06:17:52;;;;;;;52.70;34.45;;;;;;;12.98;93.01;100960.11;1710496;81;25973;-79
2021/09/15 06:20:21;;;;;;;50.40;33.53;;;;;;;13.10;93.54;100948.66;1692921;81;27464;-79
2021/09/15 06:23:02;;;;;;;;;;;;;;;13.23;93.80;100941.21;1720321;81;26634;-79
2021/09/15 06:25:43;;;;;;;39.40;28.92;;;;;;;13.35;94.19;100944.17;1741473;81;26457;-79
2021/09/15 06:28:12;;;;;;;43.65;29.98;;;;;;;13.48;94.43;100941.07;1694516;81;26611;-79
2021/09/15 06:30:41;;;;;;;47.25;30.02;;;;;;;13.61;94.64;100942.50;1704523;83;25800;-79
2021/09/15 06:33:09;;;;;;;39.63;30.05;;;;;;;13.76;94.81;100940.52;1710027;83;27563;-79
2021/09/15 06:35:36;;;;;;;42.03;32.17;;;;;;;13.89;94.88;100929.81;1736243;81;25838;-79
2021/09/15 06:38:03;;;;;;;41.28;30.80;;;;;;;14.04;95.06;100928.83;1663808;81;25915;-79
2021/09/15 06:40:30;;;;;;;45.10;33.02;;;;;;;14.17;94.92;100927.03;1700620;81;26249;-80
2021/09/15 06:42:57;;;;;;;49.35;33.13;;;;;;;14.32;94.87;100922.86;1711964;81;25476;-79
2021/09/15 06:45:24;;;;;;;40.45;31.20;;;;;;;14.46;94.90;100919.98;1711287;81;27582;-80
2021/09/15 06:47:51;;;;;;;41.65;29.95;;;;;;;14.59;94.67;100925.91;1661160;81;25880;-79
2021/09/15 06:50:18;;;;;;;42.55;29.63;;;;;;;14.73;94.54;100929.47;1698082;83;25859;-79
2021/09/15 06:52:46;;;;;;;39.55;29.05;;;;;;;14.86;94.34;100937.58;1708868;81;25861;-79
2021/09/15 06:55:14;;;;;;;32.15;25.40;;;;;;;14.95;94.05;100933.66;1735404;81;25805;-79
2021/09/15 06:57:42;;;;;;;37.73;26.48;;;;;;;15.08;94.25;100934.98;1686450;81;27936;-79
2021/09/15 07:00:10;;;;;;;36.25;27.30;;;;;;;15.20;94.18;100934.17;1711196;81;25777;-79
2021/09/15 07:02:38;;;;;;;37.45;26.95;;;;;;;15.31;93.83;100938.91;1711368;81;25848;-79
2021/09/15 07:05:06;;;;;;;32.80;24.92;;;;;;;15.42;93.47;100940.14;1716298;81;26649;-80
2021/09/15 07:07:34;;;;;;;33.60;24.75;;;;;;;15.55;93.53;100944.72;1708559;80;26602;-79
2021/09/15 07:10:01;;;;;;;29.07;23.27;;;;;;;15.69;93.41;100939.62;1701830;81;28194;-79
2021/09/15 07:12:28;;;;;;;30.37;23.80;;;;;;;15.79;93.17;100934.08;1731271;81;25901;-79
2021/09/15 07:14:55;;;;;;;29.82;23.32;;;;;;;15.92;92.93;100929.16;1759095;80;25713;-79
2021/09/15 07:17:22;;;;;;;36.33;23.85;;;;;;;16.03;92.84;100930.68;1701816;81;25897;-79
2021/09/15 07:19:49;;;;;;;31.42;23.10;;;;;;;16.17;92.60;100930.91;1690771;81;25756;-78
2021/09/15 07:22:16;;;;;;;34.35;23.18;;;;;;;16.30;92.42;100926.48;1733235;81;27586;-79
2021/09/15 07:24:43;;;;;;;28.77;21.62;;;;;;;16.42;91.97;100922.91;1763099;80;25730;-79
2021/09/15 07:27:10;;;;;;;28.83;21.55;;;;;;;16.53;91.99;100910.59;1714117;80;25912;-79
2021/09/15 07:29:37;;;;;;;29.12;21.60;;;;;;;16.64;91.77;100915.28;1722051;80;25893;-79
2021/09/15 07:32:05;;;;;;;27.37;22.60;;;;;;;16.77;91.22;100913.84;1714946;81;25807;-79
2021/09/15 07:34:32;;;;;;;25.70;18.85;;;;;;;16.87;91.18;100916.91;1754620;81;27507;-79
2021/09/15 07:36:59;;;;;;;27.22;20.02;;;;;;;16.99;90.80;100919.20;1702879;80;25919;-79
2021/09/15 07:39:26;;;;;;;24.35;19.32;;;;;;;17.11;90.12;100907.14;1734523;80;26501;-79
2021/09/15 07:41:53;;;;;;;23.35;18.48;;;;;;;17.23;89.70;100905.34;1717082;80;25834;-79
2021/09/15 07:44:20;;;;;;;22.37;18.30;;;;;;;17.34;89.95;100908.13;1742437;81;26628;-79
2021/09/15 07:46:47;;;;;;;20.97;18.62;;;;;;;17.43;89.00;100909.52;1701548;80;27522;-79
2021/09/15 07:49:14;;;;;;;19.62;16.90;;;;;;;17.53;88.48;100907.17;1683386;81;25749;-79
2021/09/15 07:51:41;;;;;;;23.35;17.85;;;;;;;17.64;88.38;100911.81;1718466;82;25859;-79
2021/09/15 07:54:08;;;;;;;23.35;16.80;;;;;;;17.73;88.46;100907.47;1716305;81;26386;-80
2021/09/15 07:56:35;;;;;;;21.33;15.68;;;;;;;17.83;88.60;100901.83;1733058;80;25879;-79
2021/09/15 07:59:02;;;;;;;21.90;15.72;;;;;;;17.94;88.12;100911.08;1738889;80;28155;-79
2021/09/15 08:01:29;;;;;;;20.10;15.00;;;;;;;18.05;87.39;100919.25;1703670;81;26241;-79
2021/09/15 08:03:56;;;;;;;18.65;15.20;;;;;;;18.14;86.97;100927.39;1737717;81;26613;-79
2021/09/15 08:06:23;;;;;;;19.48;14.98;;;;;;;18.24;86.21;100938.51;1691923;81;25933;-79
2021/09/15 08:08:50;;;;;;;15.72;13.32;;;;;;;18.32;86.42;100940.09;1696829;81;26118;-79
2021/09/15 08:11:18;;;;;;;18.95;12.93;;;;;;;18.40;86.39;100940.60;1723450;81;27444;-79
2021/09/15 08:13:45;;;;;;;16.27;13.53;;;;;;;18.48;85.59;100937.31;1744021;81;25886;-79
2021/09/15 08:16:12;;;;;;;18.48;12.93;;;;;;;18.57;85.42;100938.63;1701018;81;25889;-80
2021/09/15 08:18:39;;;;;;;13.13;11.35;;;;;;;18.64;85.04;100931.22;1728373;80;25868;-79
2021/09/15 08:21:06;;;;;;;13.13;11.80;;;;;;;18.71;84.73;100938.74;1753834;80;25723;-79
2021/09/15 08:23:33;;;;;;;14.38;11.12;;;;;;;18.79;84.73;100937.05;1778494;80;27558;-79
2021/09/15 08:26:00;;;;;;;14.18;12.07;;;;;;;18.91;84.39;100938.73;1707511;80;25900;-80
2021/09/15 08:28:27;;;;;;;15.40;11.03;;;;;;;19.00;83.83;100944.12;1701030;81;26027;-79
2021/09/15 08:30:54;;;;;;;15.93;11.18;;;;;;;19.08;83.11;100943.77;1734083;80;26529;-79
2021/09/15 08:33:21;;;;;;;13.80;10.78;;;;;;;19.17;82.46;100943.73;1749242;81;25985;-79
2021/09/15 08:35:49;;;;;;;13.08;10.20;;;;;;;19.24;82.51;100948.53;1701227;81;27504;-80
2021/09/15 08:38:16;;;;;;;12.37;9.65;;;;;;;19.33;81.29;100946.82;1717759;80;25883;-79
2021/09/15 08:40:43;;;;;;;12.18;9.60;;;;;;;19.38;81.26;100945.07;1773252;80;25866;-79
2021/09/15 08:43:11;;;;;;;11.73;9.20;;;;;;;19.44;80.63;100943.32;1768659;80;25875;-79
2021/09/15 08:45:38;;;;;;;11.80;9.18;;;;;;;19.49;80.97;100939.34;1708733;80;25882;-80
2021/09/15 08:48:06;;;;;;;13.53;8.58;;;;;;;19.57;80.07;100930.83;1719629;80;27139;-79
2021/09/15 08:50:33;;;;;;;9.75;8.30;;;;;;;19.64;79.96;100933.73;1753235;80;25934;-79
2021/09/15 08:53:00;;;;;;;10.63;8.48;;;;;;;19.72;79.32;100936.08;1774977;80;26247;-79
2021/09/15 08:55:28;;;;;;;8.33;7.53;;;;;;;19.79;79.59;100943.58;1708687;81;26516;-80
2021/09/15 08:57:55;;;;;;;9.88;8.00;;;;;;;19.88;78.49;100935.36;1718133;80;25299;-80
2021/09/15 09:00:22;;;;;;;11.15;7.40;;;;;;;19.99;77.72;100939.12;1724438;81;27677;-79
2021/09/15 09:02:52;;;;;;;10.28;7.87;;;;;;;20.06;77.22;100941.15;1755499;81;26008;-79
2021/09/15 09:05:19;;;;;;;8.60;7.70;;;;;;;20.13;77.09;100939.66;1754092;80;25810;-80
2021/09/15 09:07:46;;;;;;;12.80;8.78;;;;;;;20.18;76.70;100937.88;1720853;80;26402;-79
2021/09/15 09:10:15;;;;;;;8.78;7.80;;;;;;;20.25;77.31;100929.06;1744269;80;25342;-80
2021/09/15 09:12:45;;;;;;;12.15;7.58;;;;;;;20.30;75.61;100925.09;1748661;81;27604;-78
2021/09/15 09:15:26;;;;;;;9.35;7.20;;;;;;;20.34;74.70;100922.70;1710611;80;25818;-79
2021/09/15 09:18:00;;;;;;;10.13;6.95;;;;;;;20.43;74.52;100920.72;1720089;80;26526;-80
2021/09/15 09:20:31;;;;;;;10.00;7.00;;;;;;;20.54;74.48;100922.56;1734735;80;25969;-79
2021/09/15 09:23:17;;;;;;;11.90;7.97;;;;;;;20.61;74.46;100916.45;1732531;80;25590;-80
2021/09/15 09:25:57;;;;;;;10.58;7.78;;;;;;;20.68;73.31;100914.90;1750944;80;27512;-80
2021/09/15 09:28:34;;;;;;;8.33;7.30;;;;;;;20.73;71.85;100902.75;1715104;81;25752;-79
2021/09/15 09:31:04;;;;;;;9.43;6.80;;;;;;;20.80;71.85;100913.48;1687075;82;25825;-80
2021/09/15 09:33:34;;;;;;;11.35;7.75;;;;;;;20.85;72.01;100913.59;1717794;80;25877;-80
2021/09/15 09:36:09;;;;;;;14.03;7.58;;;;;;;20.90;71.85;100906.31;1767054;80;25804;-80
2021/09/15 09:38:45;;;;;;;10.08;7.45;;;;;;;20.93;71.60;100908.56;1708204;80;27629;-80
2021/09/15 09:41:19;;;;;;;9.18;6.87;;;;;;;20.99;70.75;100910.29;1715855;81;25334;-80
2021/09/15 09:43:50;;;;;;;9.00;7.53;;;;;;;21.02;70.76;100900.24;1707356;81;25886;-80
2021/09/15 09:46:23;;;;;;;9.05;7.53;;;;;;;21.09;70.21;100905.03;1757157;81;25808;-79
2021/09/15 09:48:56;;;;;;;14.20;6.55;;;;;;;21.15;69.25;100899.94;1721164;80;25983;-80
2021/09/15 09:51:33;;;;;;;12.63;6.40;;;;;;;21.23;69.24;100901.44;1687812;81;27581;-80
2021/09/15 09:54:29;;;;;;;10.18;7.12;;;;;;;21.33;69.28;100902.41;1718499;82;26445;-80
2021/09/15 09:56:58;;;;;;;10.68;6.65;;;;;;;21.35;68.33;100892.62;1746410;81;25866;-80
2021/09/15 09:59:26;;;;;;;9.40;6.35;;;;;;;21.36;67.80;100888.83;1715021;80;25919;-79
2021/09/15 10:01:59;;;;;;;6.58;5.12;;;;;;;21.42;68.21;100888.66;1733541;80;25301;-79
2021/09/15 10:04:30;;;;;;;9.25;7.53;;;;;;;21.53;67.78;100886.06;1708481;80;27911;-80
2021/09/15 10:06:58;;;;;;;9.13;5.70;;;;;;;21.62;66.53;100878.55;1755250;81;34910;-80
2021/09/15 10:09:25;;;;;;;9.83;6.40;;;;;;;21.74;67.17;100886.62;1747225;80;25843;-80
2021/09/15 10:11:52;;;;;;;6.45;5.85;;;;;;;21.77;66.12;100882.84;1722108;80;26431;-79
2021/09/15 10:14:19;;;;;;;8.38;6.20;;;;;;;21.75;66.01;100883.64;1692085;81;25859;-80
2021/09/15 10:17:10;;;;;;;8.83;5.42;;;;;;;21.69;65.33;100881.92;1746204;81;27600;-80
2021/09/15 10:19:44;;;;;;;9.13;6.47;;;;;;;21.67;65.27;100873.70;1725504;81;25810;-80
2021/09/15 10:22:11;;;;;;;9.95;7.35;;;;;;;21.65;64.43;100872.61;1744727;81;25892;-80
2021/09/15 10:24:57;;;;;;;10.28;7.35;;;;;;;21.69;64.09;100871.02;1718472;80;26052;-80
2021/09/15 10:27:27;;;;;;;9.18;6.85;;;;;;;21.66;63.82;100866.63;1762118;80;26150;-79
2021/09/15 10:30:06;;;;;;;;;;;;;;;21.66;64.23;100861.17;1732739;79;26972;-80
2021/09/15 10:32:36;;;;;;;9.40;6.25;;;;;;;21.66;64.22;100862.53;1704450;81;26521;-80
2021/09/15 10:35:06;;;;;;;6.35;5.80;;;;;;;21.66;64.69;100866.63;1758615;81;25747;-79
2021/09/15 10:37:41;;;;;;;9.97;6.50;;;;;;;21.74;64.79;100868.37;1777123;80;25908;-80
2021/09/15 10:40:12;;;;;;;7.53;6.72;;;;;;;21.84;63.61;100864.42;1761111;80;25789;-80
2021/09/15 10:42:47;;;;;;;7.42;6.53;;;;;;;21.94;63.84;100859.08;1765832;80;27500;-80
2021/09/15 10:45:20;;;;;;;7.08;6.42;;;;;;;22.05;63.83;100859.49;1742093;81;25924;-79
2021/09/15 10:47:58;;;;;;;9.50;7.08;;;;;;;22.15;63.51;100856.06;1765643;80;26487;-81
2021/09/15 10:50:34;;;;;;;8.88;6.53;;;;;;;22.22;63.29;100858.86;1725932;81;26538;-80
2021/09/15 10:53:13;;;;;;;9.58;6.58;;;;;;;22.32;62.74;100858.69;1741265;81;25871;-80
2021/09/15 10:55:57;;;;;;;8.45;6.87;;;;;;;22.38;62.97;100850.84;1774690;80;28199;-79
2021/09/15 10:58:27;;;;;;;11.57;7.42;;;;;;;22.42;62.82;100855.52;1740778;81;25743;-80
2021/09/15 11:01:01;;;;;;;8.40;7.53;;;;;;;22.41;62.76;100845.67;1690422;81;26281;-80
2021/09/15 11:03:36;;;;;;;9.35;6.58;;;;;;;22.42;61.65;100843.23;1726331;80;25846;-80
2021/09/15 11:06:12;;;;;;;7.62;6.87;;;;;;;22.45;62.03;100841.38;1771882;80;26502;-80
2021/09/15 11:08:54;;;;;;;9.58;6.75;;;;;;;22.49;62.53;100834.84;1762262;80;27526;-80
2021/09/15 11:11:31;;;;;;;10.55;6.75;;;;;;;22.54;61.52;100834.33;1699091;81;25818;-79
2021/09/15 11:14:07;;;;;;;10.40;7.22;;;;;;;22.62;61.99;100833.08;1730513;80;26080;-78
2021/09/15 11:16:41;;;;;;;15.35;8.90;;;;;;;22.68;61.54;100834.77;1767313;80;25808;-79
2021/09/15 11:19:18;;;;;;;25.05;8.70;;;;;;;22.70;61.81;100828.50;1764690;80;25973;-79
2021/09/15 11:21:56;;;;;;;33.88;10.40;;;;;;;22.79;61.39;100825.58;1723666;80;27483;-79
2021/09/15 11:24:31;;;;;;;12.45;7.65;;;;;;;22.85;61.79;100821.26;1704433;82;25838;-79
2021/09/15 11:27:07;;;;;;;32.30;15.50;;;;;;;22.92;61.22;100823.77;1733919;79;26604;-79
2021/09/15 11:29:48;;;;;;;48.33;21.70;;;;;;;22.95;61.74;100824.59;1734842;82;25934;-79
2021/09/15 11:32:17;;;;;;;19.50;10.30;;;;;;;22.94;60.91;100830.63;1731264;80;25794;-79
2021/09/15 11:34:50;;;;;;;21.70;9.90;;;;;;;22.93;59.82;100819.40;1714136;80;28778;-80